createdAt,value
2018-12-12T00:00:09.097Z,3.50
2018-12-12T00:02:38.258Z,3.83
2018-12-12T00:05:08.352Z,4.87
2018-12-12T00:07:36.744Z,4.70
2018-12-12T00:10:10.027Z,4.00
2018-12-12T00:12:39.403Z,4.00
2018-12-12T00:15:08.609Z,4.77
2018-12-12T00:17:37.791Z,4.20
2018-12-12T00:20:07.333Z,3.90
2018-12-12T00:22:36.339Z,4.50
2018-12-12T00:25:05.882Z,4.43
2018-12-12T00:27:34.263Z,4.30
2018-12-12T00:30:04.924Z,3.93
2018-12-12T00:32:35.920Z,4.10
2018-12-12T00:35:07.637Z,4.87
2018-12-12T00:37:36.648Z,4.00
2018-12-12T00:40:06.687Z,7.70
2018-12-12T00:42:35.189Z,7.07
2018-12-12T00:45:05.103Z,7.83
2018-12-12T00:47:34.711Z,7.40
2018-12-12T00:50:04.996Z,8.70
2018-12-12T00:52:34.591Z,8.20
2018-12-12T00:55:04.455Z,13.83
2018-12-12T00:57:34.227Z,11.97
2018-12-12T01:00:05.469Z,11.70
2018-12-12T01:02:34.673Z,6.07
2018-12-12T01:05:04.343Z,6.93
2018-12-12T01:07:32.915Z,7.80
2018-12-12T01:10:01.311Z,7.83
2018-12-12T01:12:30.314Z,9.50
2018-12-12T01:15:00.810Z,12.40
2018-12-12T01:17:29.180Z,11.77
2018-12-12T01:20:00.154Z,10.63
2018-12-12T01:22:28.722Z,10.53
2018-12-12T01:24:58.292Z,24.00
2018-12-12T01:27:26.971Z,28.77
2018-12-12T01:29:55.408Z,29.30
2018-12-12T01:32:24.516Z,25.33
2018-12-12T01:34:53.688Z,20.57
2018-12-12T01:37:23.232Z,16.73
2018-12-12T01:39:52.115Z,13.33
2018-12-12T01:42:20.664Z,18.27
2018-12-12T01:44:50.031Z,16.77
2018-12-12T01:47:18.446Z,12.07
2018-12-12T01:49:47.262Z,10.63
2018-12-12T01:52:16.664Z,12.00
2018-12-12T01:54:45.596Z,14.50
2018-12-12T01:57:14.030Z,12.47
2018-12-12T01:59:42.364Z,12.73
2018-12-12T02:02:10.722Z,13.30
2018-12-12T02:04:39.343Z,10.80
2018-12-12T02:07:07.697Z,11.17
2018-12-12T02:09:36.093Z,27.70
2018-12-12T02:12:05.360Z,18.97
2018-12-12T02:14:33.934Z,15.00
2018-12-12T02:17:02.291Z,12.77
2018-12-12T02:19:31.197Z,12.80
2018-12-12T02:22:00.205Z,16.13
2018-12-12T02:24:28.793Z,13.80
2018-12-12T02:26:57.237Z,13.70
2018-12-12T02:29:25.703Z,12.60
2018-12-12T02:31:54.065Z,11.53
2018-12-12T02:34:22.463Z,10.03
2018-12-12T02:36:50.821Z,11.97
2018-12-12T02:39:19.180Z,12.70
2018-12-12T02:41:48.011Z,12.17
2018-12-12T02:44:16.633Z,12.40
2018-12-12T02:46:45.410Z,11.97
2018-12-12T02:49:13.802Z,9.60
2018-12-12T02:51:42.190Z,8.60
2018-12-12T02:54:10.562Z,7.60
2018-12-12T02:56:38.950Z,9.70
2018-12-12T02:59:08.220Z,11.00
2018-12-12T03:01:37.864Z,14.60
2018-12-12T03:04:08.754Z,10.80
2018-12-12T03:06:37.478Z,10.87
2018-12-12T03:09:08.787Z,7.73
2018-12-12T03:11:37.340Z,5.80
2018-12-12T03:14:06.331Z,5.10
2018-12-12T03:16:34.749Z,5.73
2018-12-12T03:19:03.117Z,6.00
2018-12-12T03:21:31.514Z,4.63
2018-12-12T03:23:59.875Z,6.50
2018-12-12T03:26:28.240Z,7.93
2018-12-12T03:28:56.703Z,9.57
2018-12-12T03:31:25.423Z,7.53
2018-12-12T03:33:54.685Z,5.83
2018-12-12T03:36:23.089Z,7.73
2018-12-12T03:38:51.700Z,8.67
2018-12-12T03:41:20.754Z,8.33
2018-12-12T03:43:49.192Z,7.60
2018-12-12T03:46:17.569Z,6.30
2018-12-12T03:48:45.947Z,6.70
2018-12-12T03:51:14.404Z,6.90
2018-12-12T03:53:43.011Z,5.50
2018-12-12T03:56:11.372Z,6.57
2018-12-12T03:58:40.037Z,5.73
2018-12-12T04:01:09.133Z,6.00
2018-12-12T04:03:37.486Z,6.03
2018-12-12T04:06:06.916Z,11.13
2018-12-12T04:08:35.537Z,18.80
2018-12-12T04:11:04.411Z,19.47
2018-12-12T04:13:32.786Z,16.97
2018-12-12T04:16:01.164Z,18.10
2018-12-12T04:21:02.915Z,16.33
2018-12-12T04:23:31.843Z,16.07
2018-12-12T04:26:00.627Z,13.97
2018-12-12T04:28:29.050Z,14.90
2018-12-12T04:30:57.479Z,15.87
2018-12-12T04:33:26.185Z,15.87
2018-12-12T04:35:54.815Z,13.27
2018-12-12T04:38:23.770Z,11.67
2018-12-12T04:40:53.156Z,11.43
2018-12-12T04:43:21.567Z,10.23
2018-12-12T04:45:50.276Z,9.87
2018-12-12T04:48:18.700Z,7.10
2018-12-12T04:50:47.551Z,21.30
2018-12-12T04:53:16.279Z,38.80
2018-12-12T04:55:46.908Z,39.37
2018-12-12T04:58:16.208Z,37.13
2018-12-12T05:00:46.368Z,25.10
2018-12-12T05:03:15.526Z,19.87
2018-12-12T05:05:43.924Z,15.47
2018-12-12T05:08:12.843Z,13.33
2018-12-12T05:10:41.785Z,15.07
2018-12-12T05:13:10.167Z,14.50
2018-12-12T05:15:38.826Z,15.73
2018-12-12T05:18:08.295Z,14.43
2018-12-12T05:20:40.678Z,14.87
2018-12-12T05:23:10.509Z,15.70
2018-12-12T05:25:39.172Z,13.10
2018-12-12T05:28:08.118Z,10.63
2018-12-12T05:30:36.515Z,8.67
2018-12-12T05:33:05.345Z,7.43
2018-12-12T05:35:33.881Z,13.57
2018-12-12T05:38:02.279Z,14.33
2018-12-12T05:40:31.065Z,18.80
2018-12-12T05:42:59.451Z,15.60
2018-12-12T05:45:29.553Z,12.73
2018-12-12T05:47:59.486Z,12.70
2018-12-12T05:50:29.142Z,12.03
2018-12-12T05:52:57.589Z,19.97
2018-12-12T05:55:28.865Z,16.47
2018-12-12T05:57:57.870Z,14.33
2018-12-12T06:00:26.305Z,15.67
2018-12-12T06:02:54.734Z,10.77
2018-12-12T06:05:23.143Z,7.93
2018-12-12T06:07:51.819Z,7.30
2018-12-12T06:10:20.188Z,8.47
2018-12-12T06:12:48.605Z,7.53
2018-12-12T06:15:18.339Z,7.17
2018-12-12T06:17:46.768Z,6.73
2018-12-12T06:20:15.593Z,7.33
2018-12-12T06:22:44.376Z,6.30
2018-12-12T06:25:13.455Z,5.97
2018-12-12T06:27:42.213Z,5.07
2018-12-12T06:30:11.510Z,4.93
2018-12-12T06:32:40.256Z,5.40
2018-12-12T06:35:12.810Z,16.73
2018-12-12T06:37:41.270Z,20.63
2018-12-12T06:40:10.120Z,22.97
2018-12-12T06:42:39.935Z,19.10
2018-12-12T06:45:09.790Z,18.27
2018-12-12T06:47:38.463Z,17.70
2018-12-12T06:50:10.810Z,17.17
2018-12-12T06:52:40.084Z,14.03
2018-12-12T06:55:08.920Z,11.23
2018-12-12T06:57:37.795Z,8.43
2018-12-12T07:00:07.584Z,7.73
2018-12-12T07:02:36.815Z,7.20
2018-12-12T07:05:06.856Z,7.57
2018-12-12T07:07:35.586Z,6.30
2018-12-12T07:10:05.040Z,6.93
2018-12-12T07:12:33.472Z,8.90
2018-12-12T07:15:01.881Z,18.57
2018-12-12T07:17:30.800Z,17.20
2018-12-12T07:19:59.449Z,14.17
2018-12-12T07:22:27.831Z,12.87
2018-12-12T07:24:56.197Z,12.37
2018-12-12T07:27:24.559Z,12.20
2018-12-12T07:29:52.905Z,9.90
2018-12-12T07:32:26.041Z,11.53
2018-12-12T07:34:52.062Z,10.60
2018-12-12T07:37:22.192Z,8.33
2018-12-12T07:39:50.784Z,9.47
2018-12-12T07:42:19.178Z,8.63
2018-12-12T07:44:48.111Z,9.03
2018-12-12T07:47:16.451Z,9.27
2018-12-12T07:49:45.408Z,10.10
2018-12-12T07:52:13.812Z,8.97
2018-12-12T07:54:42.182Z,7.47
2018-12-12T07:57:10.595Z,6.63
2018-12-12T07:59:38.958Z,5.90
2018-12-12T08:02:07.904Z,5.33
2018-12-12T08:04:36.308Z,4.60
2018-12-12T08:07:05.685Z,4.50
2018-12-12T08:09:34.070Z,4.40
2018-12-12T08:12:02.445Z,4.33
2018-12-12T08:14:30.829Z,4.50
2018-12-12T08:16:59.864Z,6.07
2018-12-12T08:19:28.309Z,7.03
2018-12-12T08:21:56.691Z,6.87
2018-12-12T08:24:25.079Z,7.03
2018-12-12T08:26:53.725Z,6.23
2018-12-12T08:29:23.466Z,8.47
2018-12-12T08:31:54.097Z,9.07
2018-12-12T08:34:22.787Z,9.20
2018-12-12T08:36:51.379Z,10.10
2018-12-12T08:39:19.803Z,9.40
2018-12-12T08:41:48.369Z,10.53
2018-12-12T08:44:16.754Z,11.30
2018-12-12T08:46:45.577Z,12.77
2018-12-12T08:49:14.393Z,12.50
2018-12-12T08:51:42.735Z,12.60
2018-12-12T08:54:11.147Z,12.00
2018-12-12T08:56:39.531Z,13.43
2018-12-12T08:59:07.925Z,13.40
2018-12-12T09:01:36.805Z,13.30
2018-12-12T09:04:05.159Z,13.53
2018-12-12T09:06:33.535Z,13.10
2018-12-12T09:09:04.842Z,14.07
2018-12-12T09:11:33.634Z,13.97
2018-12-12T09:14:02.001Z,14.40
2018-12-12T09:16:30.388Z,15.17
2018-12-12T09:18:58.742Z,15.83
2018-12-12T09:21:27.506Z,16.90
2018-12-12T09:23:56.802Z,18.73
2018-12-12T09:26:25.500Z,19.07
2018-12-12T09:28:53.891Z,19.20
2018-12-12T09:31:22.286Z,21.40
2018-12-12T09:33:51.404Z,22.37
2018-12-12T09:36:21.807Z,23.47
2018-12-12T09:38:50.195Z,25.20
2018-12-12T09:41:19.403Z,23.57
2018-12-12T09:43:48.707Z,25.93
2018-12-12T09:46:17.623Z,28.57
2018-12-12T09:48:46.011Z,28.07
2018-12-12T09:51:15.234Z,31.23
2018-12-12T09:53:43.643Z,30.80
2018-12-12T09:56:13.150Z,30.60
2018-12-12T09:58:48.320Z,28.27
2018-12-12T10:01:19.081Z,27.03
2018-12-12T10:03:50.215Z,27.13
2018-12-12T10:06:19.523Z,26.87
2018-12-12T10:08:48.745Z,27.70
2018-12-12T10:11:17.788Z,26.83
2018-12-12T10:13:46.986Z,25.77
2018-12-12T10:16:18.951Z,21.27
2018-12-12T10:18:48.564Z,22.07
2018-12-12T10:21:17.928Z,21.80
2018-12-12T10:23:46.286Z,21.03
2018-12-12T10:26:14.648Z,21.23
2018-12-12T10:28:43.996Z,20.67
2018-12-12T10:31:12.360Z,18.97
2018-12-12T10:33:40.718Z,19.80
2018-12-12T10:36:10.391Z,20.23
2018-12-12T10:38:41.647Z,19.40
2018-12-12T10:41:10.857Z,18.27
2018-12-12T10:43:39.633Z,18.47
2018-12-12T10:46:09.136Z,16.83
2018-12-12T10:48:40.777Z,19.20
2018-12-12T10:51:10.401Z,21.20
2018-12-12T10:53:38.829Z,21.17
2018-12-12T10:56:08.597Z,18.77
2018-12-12T10:58:38.526Z,17.70
2018-12-12T11:01:14.726Z,17.97
2018-12-12T11:03:44.417Z,18.63
2018-12-12T11:06:15.385Z,19.47
2018-12-12T11:08:48.850Z,16.50
2018-12-12T11:11:35.397Z,16.57
2018-12-12T11:14:04.939Z,16.00
2018-12-12T11:16:34.634Z,15.80
2018-12-12T11:19:06.904Z,14.33
2018-12-12T11:21:35.302Z,14.63
2018-12-12T11:24:04.086Z,14.53
2018-12-12T11:26:33.758Z,13.90
2018-12-12T11:29:02.163Z,12.00
2018-12-12T11:31:30.754Z,14.70
2018-12-12T11:34:00.007Z,14.77
2018-12-12T11:36:28.387Z,16.27
2018-12-12T11:38:58.494Z,16.53
2018-12-12T11:41:29.640Z,18.03
2018-12-12T11:44:02.695Z,18.07
2018-12-12T11:46:35.103Z,17.23
2018-12-12T11:51:46.174Z,19.07
2018-12-12T11:54:19.630Z,19.20
2018-12-12T11:56:49.249Z,20.23
2018-12-12T11:59:18.894Z,19.80
2018-12-12T12:01:48.263Z,19.80
2018-12-12T12:04:18.427Z,20.67
2018-12-12T12:06:48.550Z,19.83
2018-12-12T12:09:18.149Z,22.07
2018-12-12T12:11:51.079Z,19.00
2018-12-12T12:14:21.027Z,20.03
2018-12-12T12:16:51.503Z,23.90
2018-12-12T12:19:19.999Z,24.87
2018-12-12T12:21:51.003Z,26.63
2018-12-12T12:24:19.371Z,26.23
2018-12-12T12:26:48.190Z,24.83
2018-12-12T12:29:16.797Z,26.83
2018-12-12T12:31:45.974Z,22.13
2018-12-12T12:34:16.329Z,21.20
2018-12-12T12:36:45.437Z,21.47
2018-12-12T12:39:14.816Z,19.23
2018-12-12T12:41:43.226Z,16.60
2018-12-12T12:44:11.633Z,16.03
2018-12-12T12:46:40.440Z,14.50
2018-12-12T12:49:09.696Z,15.33
2018-12-12T12:51:38.090Z,13.60
2018-12-12T12:54:07.079Z,14.90
2018-12-12T12:56:36.129Z,14.30
2018-12-12T12:59:08.392Z,15.43
2018-12-12T13:01:37.216Z,13.10
2018-12-12T13:04:09.683Z,11.87
2018-12-12T13:06:36.281Z,11.67
2018-12-12T13:09:08.352Z,10.23
2018-12-12T13:11:36.771Z,11.17
2018-12-12T13:14:05.645Z,11.17
2018-12-12T13:16:34.859Z,10.87
2018-12-12T13:19:04.137Z,10.23
2018-12-12T13:22:37.200Z,10.67
2018-12-12T13:25:06.544Z,11.03
2018-12-12T13:27:35.758Z,11.37
2018-12-12T13:30:05.415Z,11.67
2018-12-12T13:32:33.810Z,11.23
2018-12-12T13:35:03.595Z,11.47
2018-12-12T13:37:33.388Z,10.93
2018-12-12T13:40:02.596Z,11.90
2018-12-12T13:42:32.646Z,11.70
2018-12-12T13:45:01.648Z,12.30
2018-12-12T13:47:31.150Z,11.60
2018-12-12T13:50:00.137Z,11.00
2018-12-12T13:52:29.145Z,12.00
2018-12-12T13:54:59.430Z,11.27
2018-12-12T13:57:27.830Z,11.50
2018-12-12T13:59:56.629Z,12.70
2018-12-12T14:02:26.476Z,12.60
2018-12-12T14:04:56.787Z,12.70
2018-12-12T14:07:26.024Z,12.53
2018-12-12T14:09:55.963Z,12.60
2018-12-12T14:12:24.373Z,12.23
2018-12-12T14:14:53.725Z,11.70
2018-12-12T14:17:24.775Z,11.93
2018-12-12T14:19:53.157Z,13.17
2018-12-12T14:22:22.803Z,13.20
2018-12-12T14:24:52.038Z,13.67
2018-12-12T14:27:21.520Z,14.50
2018-12-12T14:29:53.313Z,15.40
2018-12-12T14:32:21.699Z,14.43
2018-12-12T14:34:51.517Z,14.57
2018-12-12T14:37:20.009Z,15.07
2018-12-12T14:39:49.166Z,15.97
2018-12-12T14:42:17.925Z,14.53
2018-12-12T14:44:46.610Z,16.20
2018-12-12T14:47:15.554Z,15.47
2018-12-12T14:49:47.121Z,17.33
2018-12-12T14:52:17.322Z,17.10
2018-12-12T14:54:46.404Z,17.23
2018-12-12T14:57:14.878Z,16.60
2018-12-12T14:59:43.991Z,19.87
2018-12-12T15:02:12.361Z,19.80
2018-12-12T15:04:41.408Z,20.57
2018-12-12T15:07:10.494Z,20.07
2018-12-12T15:09:40.353Z,20.20
2018-12-12T15:12:10.340Z,19.43
2018-12-12T15:14:38.727Z,18.37
2018-12-12T15:17:08.152Z,18.77
2018-12-12T15:19:37.121Z,17.33
2018-12-12T15:22:06.397Z,15.40
2018-12-12T15:24:35.483Z,13.63
2018-12-12T15:27:04.655Z,13.77
2018-12-12T15:29:33.095Z,13.67
2018-12-12T15:32:01.757Z,13.10
2018-12-12T15:34:30.108Z,13.07
2018-12-12T15:36:58.473Z,12.60
2018-12-12T15:39:26.839Z,11.90
2018-12-12T15:41:55.209Z,10.63
2018-12-12T15:44:23.635Z,11.00
2018-12-12T15:46:51.999Z,11.50
2018-12-12T15:49:20.404Z,11.37
2018-12-12T15:51:48.867Z,11.70
2018-12-12T15:54:17.222Z,11.57
2018-12-12T15:56:46.278Z,11.80
2018-12-12T15:59:14.645Z,12.47
2018-12-12T16:01:44.068Z,12.57
2018-12-12T16:04:13.354Z,12.87
2018-12-12T16:06:42.459Z,12.87
2018-12-12T16:09:10.814Z,12.97
2018-12-12T16:11:39.281Z,11.87
2018-12-12T16:14:08.555Z,12.43
2018-12-12T16:16:38.022Z,12.83
2018-12-12T16:19:06.450Z,12.17
2018-12-12T16:21:35.734Z,14.40
2018-12-12T16:24:04.113Z,13.50
2018-12-12T16:26:32.523Z,13.70
2018-12-12T16:29:01.282Z,14.10
2018-12-12T16:31:29.927Z,14.33
2018-12-12T16:33:58.400Z,13.13
2018-12-12T16:36:27.430Z,11.77
2018-12-12T16:38:56.794Z,12.60
2018-12-12T16:41:26.143Z,10.47
2018-12-12T16:43:54.534Z,10.60
2018-12-12T16:46:22.903Z,10.27
2018-12-12T16:48:51.304Z,9.17
2018-12-12T16:51:19.687Z,9.27
2018-12-12T16:53:48.907Z,8.70
2018-12-12T16:56:17.263Z,9.23
2018-12-12T16:58:45.651Z,8.40
2018-12-12T17:01:14.029Z,8.63
2018-12-12T17:03:42.479Z,7.67
2018-12-12T17:06:10.859Z,7.60
2018-12-12T17:08:39.223Z,7.20
2018-12-12T17:11:08.000Z,6.97
2018-12-12T17:13:37.283Z,6.50
2018-12-12T17:16:05.662Z,6.70
2018-12-12T17:18:34.417Z,7.10
2018-12-12T17:21:03.730Z,6.87
2018-12-12T17:23:32.085Z,7.27
2018-12-12T17:26:00.496Z,7.87
2018-12-12T17:28:28.920Z,7.67
2018-12-12T17:30:57.251Z,8.03
2018-12-12T17:33:25.688Z,7.97
2018-12-12T17:35:54.466Z,8.40
2018-12-12T17:38:22.832Z,8.77
2018-12-12T17:40:51.222Z,8.77
2018-12-12T17:43:19.609Z,9.10
2018-12-12T17:45:47.976Z,9.40
2018-12-12T17:48:16.994Z,9.60
2018-12-12T17:50:48.112Z,9.60
2018-12-12T17:53:16.841Z,10.27
2018-12-12T17:55:46.203Z,10.60
2018-12-12T17:58:14.611Z,9.63
2018-12-12T18:00:43.715Z,9.90
2018-12-12T18:03:12.496Z,10.27
2018-12-12T18:05:41.873Z,10.10
2018-12-12T18:08:10.927Z,10.13
2018-12-12T18:10:39.366Z,10.20
2018-12-12T18:13:07.966Z,9.37
2018-12-12T18:15:36.981Z,9.73
2018-12-12T18:18:05.839Z,9.47
2018-12-12T18:20:34.564Z,9.30
2018-12-12T18:23:03.746Z,10.20
2018-12-12T18:25:33.007Z,9.57
2018-12-12T18:28:02.025Z,9.83
2018-12-12T18:30:30.505Z,10.77
2018-12-12T18:32:58.920Z,10.87
2018-12-12T18:35:27.728Z,10.73
2018-12-12T18:37:56.341Z,10.70
2018-12-12T18:40:24.843Z,10.87
2018-12-12T18:42:53.839Z,11.47
2018-12-12T18:45:22.207Z,10.90
2018-12-12T18:47:51.003Z,10.80
2018-12-12T18:50:20.446Z,11.43
2018-12-12T18:52:48.793Z,10.80
2018-12-12T18:55:17.595Z,11.70
2018-12-12T18:57:46.148Z,10.73
2018-12-12T19:00:14.950Z,10.50
2018-12-12T19:02:43.398Z,10.07
2018-12-12T19:05:12.216Z,11.83
2018-12-12T19:07:40.574Z,11.07
2018-12-12T19:10:09.900Z,11.30
2018-12-12T19:12:38.802Z,11.47
2018-12-12T19:15:08.701Z,11.83
2018-12-12T19:17:37.897Z,11.87
2018-12-12T19:20:07.974Z,11.00
2018-12-12T19:22:36.342Z,12.33
2018-12-12T19:25:05.225Z,11.40
2018-12-12T19:27:33.580Z,11.40
2018-12-12T19:30:01.964Z,11.17
2018-12-12T19:32:30.369Z,10.87
2018-12-12T19:34:58.743Z,11.70
2018-12-12T19:37:27.561Z,11.73
2018-12-12T19:39:55.939Z,11.80
2018-12-12T19:42:25.361Z,11.60
2018-12-12T19:44:54.430Z,12.13
2018-12-12T19:47:23.225Z,12.03
2018-12-12T19:49:52.628Z,12.33
2018-12-12T19:52:21.301Z,12.23
2018-12-12T19:54:50.639Z,11.93
2018-12-12T19:57:18.993Z,11.73
2018-12-12T19:59:48.986Z,12.83
2018-12-12T20:02:17.807Z,11.87
2018-12-12T20:04:46.190Z,12.67
2018-12-12T20:07:15.199Z,12.50
2018-12-12T20:09:44.198Z,13.20
2018-12-12T20:12:13.454Z,13.03
2018-12-12T20:14:42.208Z,12.97
2018-12-12T20:17:11.340Z,14.07
2018-12-12T20:19:40.259Z,12.87
2018-12-12T20:22:10.711Z,12.87
2018-12-12T20:24:39.340Z,12.80
2018-12-12T20:27:09.444Z,13.77
2018-12-12T20:29:37.854Z,13.23
2018-12-12T20:32:06.250Z,14.30
2018-12-12T20:34:34.840Z,14.77
2018-12-12T20:37:03.448Z,14.63
2018-12-12T20:39:31.811Z,13.87
2018-12-12T20:42:00.171Z,13.37
2018-12-12T20:44:29.078Z,12.47
2018-12-12T20:46:58.320Z,15.67
2018-12-12T20:49:26.703Z,15.37
2018-12-12T20:51:55.097Z,15.90
2018-12-12T20:54:23.472Z,16.20
2018-12-12T20:56:52.099Z,16.37
2018-12-12T20:59:20.881Z,17.03
2018-12-12T21:01:50.619Z,16.17
2018-12-12T21:04:19.563Z,17.07
2018-12-12T21:06:48.289Z,17.47
2018-12-12T21:09:16.681Z,17.87
2018-12-12T21:11:45.513Z,17.50
2018-12-12T21:14:14.845Z,17.30
2018-12-12T21:16:43.239Z,17.53
2018-12-12T21:19:12.610Z,18.70
2018-12-12T21:21:40.986Z,18.17
2018-12-12T21:24:09.399Z,18.60
2018-12-12T21:26:37.766Z,18.07
2018-12-12T21:29:06.808Z,18.50
2018-12-12T21:31:36.163Z,19.50
2018-12-12T21:34:04.546Z,18.33
2018-12-12T21:36:32.910Z,18.47
2018-12-12T21:39:01.300Z,19.37
2018-12-12T21:41:31.867Z,17.10
2018-12-12T21:44:01.260Z,18.67
2018-12-12T21:46:32.147Z,19.07
2018-12-12T21:49:02.561Z,19.73
2018-12-12T21:51:32.619Z,18.43
2018-12-12T21:54:01.227Z,19.57
2018-12-12T21:56:29.927Z,19.53
2018-12-12T21:58:59.102Z,19.60
2018-12-12T22:01:27.813Z,18.23
2018-12-12T22:03:56.301Z,19.17
2018-12-12T22:06:27.104Z,19.70
2018-12-12T22:08:55.535Z,19.07
2018-12-12T22:11:25.665Z,19.00
2018-12-12T22:13:54.641Z,19.37
2018-12-12T22:17:52.513Z,17.17
2018-12-12T22:20:20.942Z,16.90
2018-12-12T22:22:49.336Z,19.80
2018-12-12T22:25:17.746Z,20.53
2018-12-12T22:27:47.524Z,20.37
2018-12-12T22:30:18.939Z,21.00
2018-12-12T22:32:47.792Z,18.93
2018-12-12T22:35:16.156Z,21.43
2018-12-12T22:37:44.528Z,21.87
2018-12-12T22:40:13.751Z,20.20
2018-12-12T22:42:42.182Z,21.70
2018-12-12T22:45:12.150Z,20.53
2018-12-12T22:47:42.465Z,21.50
2018-12-12T22:50:10.823Z,20.80
2018-12-12T22:52:39.457Z,21.20
2018-12-12T22:55:08.590Z,19.33
2018-12-12T22:57:37.205Z,19.30
2018-12-12T23:00:08.271Z,19.90
2018-12-12T23:02:36.679Z,20.47
2018-12-12T23:05:06.055Z,20.33
2018-12-12T23:07:34.564Z,20.67
2018-12-12T23:10:03.819Z,20.43
2018-12-12T23:12:32.250Z,20.43
2018-12-12T23:15:00.973Z,20.53
2018-12-12T23:17:30.218Z,21.33
2018-12-12T23:19:58.608Z,19.60
2018-12-12T23:22:27.012Z,18.93
2018-12-12T23:24:55.388Z,18.87
2018-12-12T23:27:24.742Z,19.23
2018-12-12T23:29:53.156Z,18.30
2018-12-12T23:32:21.527Z,19.20
2018-12-12T23:34:49.919Z,17.93
2018-12-12T23:37:18.311Z,24.50
2018-12-12T23:39:47.655Z,25.73
2018-12-12T23:42:16.046Z,21.57
2018-12-12T23:44:44.443Z,22.83
2018-12-12T23:47:12.921Z,22.83
2018-12-12T23:49:41.672Z,22.43
2018-12-12T23:52:10.117Z,22.90
2018-12-12T23:54:38.547Z,23.20
2018-12-12T23:57:06.913Z,23.40
2018-12-12T23:59:35.679Z,23.00
